createdAt,value
2017-03-13T00:00:10.990Z,1019.89
2017-03-13T00:01:10.928Z,1019.93
2017-03-13T00:02:10.866Z,1019.91
2017-03-13T00:03:10.806Z,1019.9
2017-03-13T00:04:10.747Z,1019.92
2017-03-13T00:05:10.681Z,1019.91
2017-03-13T00:06:10.619Z,1019.95
2017-03-13T00:07:10.558Z,1019.99
2017-03-13T00:08:10.495Z,1019.99
2017-03-13T00:09:10.434Z,1020
2017-03-13T00:10:10.372Z,1020.01
2017-03-13T00:11:10.311Z,1019.99
2017-03-13T00:12:10.247Z,1019.99
2017-03-13T00:13:10.185Z,1020
2017-03-13T00:14:10.123Z,1019.98
2017-03-13T00:15:10.061Z,1019.93
2017-03-13T00:16:10.006Z,1019.99
2017-03-13T00:17:09.938Z,1019.94
2017-03-13T00:18:09.875Z,1019.94
2017-03-13T00:19:09.813Z,1019.93
2017-03-13T00:20:09.751Z,1019.98
2017-03-13T00:21:09.690Z,1019.97
2017-03-13T00:22:09.629Z,1019.93
2017-03-13T00:23:09.566Z,1019.97
2017-03-13T00:24:09.502Z,1019.97
2017-03-13T00:25:09.443Z,1019.97
2017-03-13T00:26:09.378Z,1019.98
2017-03-13T00:27:09.317Z,1019.98
2017-03-13T00:28:09.255Z,1020.05
2017-03-13T00:29:09.193Z,1020.02
2017-03-13T00:30:09.131Z,1020.08
2017-03-13T00:31:09.070Z,1020.09
2017-03-13T00:32:09.007Z,1020.13
2017-03-13T00:33:08.944Z,1020.16
2017-03-13T00:34:08.882Z,1020.12
2017-03-13T00:35:08.825Z,1020.12
2017-03-13T00:36:08.759Z,1020.11
2017-03-13T00:37:08.697Z,1020.12
2017-03-13T00:38:08.636Z,1020.14
2017-03-13T00:39:08.573Z,1020.13
2017-03-13T00:40:08.515Z,1020.14
2017-03-13T00:41:08.449Z,1020.11
2017-03-13T00:42:08.388Z,1020.12
2017-03-13T00:43:08.325Z,1020.14
2017-03-13T00:44:08.263Z,1020.1
2017-03-13T00:45:08.202Z,1020.11
2017-03-13T00:46:08.138Z,1020.1
2017-03-13T00:47:08.078Z,1020.09
2017-03-13T00:48:08.015Z,1020.06
2017-03-13T00:49:07.953Z,1020.08
2017-03-13T00:50:07.895Z,1020.06
2017-03-13T00:51:07.865Z,1020.08
2017-03-13T00:52:07.766Z,1020.1
2017-03-13T00:53:07.705Z,1020.11
2017-03-13T00:54:07.655Z,1020.1
2017-03-13T00:55:07.582Z,1020.09
2017-03-13T00:56:07.519Z,1020.11
2017-03-13T00:57:07.458Z,1020.1
2017-03-13T00:58:07.396Z,1020.1
2017-03-13T00:59:07.333Z,1020.1
2017-03-13T01:01:10.556Z,1020.06
2017-03-13T01:02:10.189Z,1020.06
2017-03-13T01:03:10.126Z,1020.05
2017-03-13T01:04:10.065Z,1020.1
2017-03-13T01:05:10.003Z,1020.11
2017-03-13T01:06:09.940Z,1020.02
2017-03-13T01:07:09.878Z,1020.08
2017-03-13T01:08:09.817Z,1020.09
2017-03-13T01:09:09.754Z,1020.03
2017-03-13T01:10:09.696Z,1020.07
2017-03-13T01:11:09.630Z,1020.04
2017-03-13T01:12:09.569Z,1020.03
2017-03-13T01:13:09.506Z,1020.02
2017-03-13T01:14:09.445Z,1019.97
2017-03-13T01:15:09.383Z,1019.97
2017-03-13T01:16:09.321Z,1019.99
2017-03-13T01:17:09.259Z,1019.99
2017-03-13T01:18:09.194Z,1019.97
2017-03-13T01:19:09.135Z,1019.98
2017-03-13T01:20:09.073Z,1019.96
2017-03-13T01:21:09.010Z,1019.96
2017-03-13T01:22:08.946Z,1019.94
2017-03-13T01:23:08.886Z,1019.92
2017-03-13T01:24:08.824Z,1019.9
2017-03-13T01:25:08.762Z,1019.93
2017-03-13T01:26:08.701Z,1019.91
2017-03-13T01:27:08.636Z,1019.93
2017-03-13T01:28:08.578Z,1019.93
2017-03-13T01:29:08.515Z,1019.94
2017-03-13T01:30:08.452Z,1019.92
2017-03-13T01:31:08.390Z,1019.94
2017-03-13T01:32:08.328Z,1019.92
2017-03-13T01:33:08.266Z,1019.97
2017-03-13T01:34:08.203Z,1019.93
2017-03-13T01:35:08.142Z,1019.92
2017-03-13T01:36:08.080Z,1019.92
2017-03-13T01:37:08.016Z,1019.88
2017-03-13T01:38:07.956Z,1019.89
2017-03-13T01:39:07.893Z,1019.89
2017-03-13T01:40:07.833Z,1019.87
2017-03-13T01:41:07.770Z,1019.83
2017-03-13T01:42:07.709Z,1019.87
2017-03-13T01:43:07.646Z,1019.84
2017-03-13T01:44:07.583Z,1019.84
2017-03-13T01:45:07.522Z,1019.81
2017-03-13T01:46:07.460Z,1019.83
2017-03-13T01:47:07.398Z,1019.83
2017-03-13T01:48:07.334Z,1019.85
2017-03-13T01:49:07.274Z,1019.83
2017-03-13T01:50:07.214Z,1019.8
2017-03-13T01:51:07.151Z,1019.83
2017-03-13T01:52:07.086Z,1019.8
2017-03-13T01:53:07.027Z,1019.83
2017-03-13T01:54:06.963Z,1019.81
2017-03-13T01:55:06.901Z,1019.85
2017-03-13T01:56:06.840Z,1019.83
2017-03-13T01:57:06.812Z,1019.86
2017-03-13T01:58:06.715Z,1019.86
2017-03-13T01:59:06.653Z,1019.88
2017-03-13T02:00:06.592Z,1019.85
2017-03-13T02:01:06.535Z,1019.88
2017-03-13T02:02:06.465Z,1019.89
2017-03-13T02:03:06.405Z,1019.83
2017-03-13T02:04:06.344Z,1019.87
2017-03-13T02:05:06.282Z,1019.88
2017-03-13T02:06:06.216Z,1019.88
2017-03-13T02:07:06.155Z,1019.87
2017-03-13T02:08:06.096Z,1019.91
2017-03-13T02:09:06.033Z,1019.92
2017-03-13T02:10:05.970Z,1019.89
2017-03-13T02:11:05.909Z,1019.94
2017-03-13T02:12:05.846Z,1019.92
2017-03-13T02:13:05.784Z,1019.92
2017-03-13T02:14:05.721Z,1019.92
2017-03-13T02:15:05.661Z,1019.92
2017-03-13T02:16:05.599Z,1019.89
2017-03-13T02:17:05.536Z,1019.9
2017-03-13T02:18:05.473Z,1019.96
2017-03-13T02:19:05.413Z,1019.95
2017-03-13T02:20:05.351Z,1019.93
2017-03-13T02:21:05.288Z,1019.95
2017-03-13T02:22:05.227Z,1019.93
2017-03-13T02:23:05.165Z,1019.92
2017-03-13T02:24:05.102Z,1019.94
2017-03-13T02:25:05.040Z,1019.89
2017-03-13T02:26:04.979Z,1019.93
2017-03-13T02:27:04.918Z,1019.94
2017-03-13T02:28:04.854Z,1019.94
2017-03-13T02:29:04.792Z,1019.95
2017-03-13T02:30:04.729Z,1019.92
2017-03-13T02:31:04.670Z,1019.92
2017-03-13T02:32:04.606Z,1019.93
2017-03-13T02:33:04.543Z,1019.97
2017-03-13T02:34:04.482Z,1019.97
2017-03-13T02:35:04.420Z,1019.98
2017-03-13T02:36:04.358Z,1019.98
2017-03-13T02:37:04.297Z,1020.01
2017-03-13T02:38:04.236Z,1020.01
2017-03-13T02:39:04.171Z,1020.06
2017-03-13T02:40:04.110Z,1020.03
2017-03-13T02:41:04.047Z,1020.06
2017-03-13T02:42:03.987Z,1020.05
2017-03-13T02:43:03.925Z,1020.06
2017-03-13T02:44:03.863Z,1020.07
2017-03-13T02:45:03.801Z,1020.09
2017-03-13T02:46:03.736Z,1020.11
2017-03-13T02:47:03.674Z,1020.07
2017-03-13T02:48:03.625Z,1020.07
2017-03-13T02:49:03.551Z,1020.07
2017-03-13T02:50:03.489Z,1020.07
2017-03-13T02:51:03.436Z,1020.07
2017-03-13T02:52:03.365Z,1020.08
2017-03-13T02:53:03.302Z,1020.07
2017-03-13T02:54:03.242Z,1020.06
2017-03-13T02:55:03.183Z,1020.07
2017-03-13T02:56:03.118Z,1020.05
2017-03-13T02:57:03.054Z,1020.02
2017-03-13T02:58:03.001Z,1020
2017-03-13T02:59:02.932Z,1019.99
2017-03-13T03:00:02.871Z,1019.99
2017-03-13T03:01:02.808Z,1020
2017-03-13T03:02:02.744Z,1020.03
2017-03-13T03:03:02.685Z,1020.02
2017-03-13T03:04:02.622Z,1020.02
2017-03-13T03:05:02.559Z,1019.98
2017-03-13T03:06:02.498Z,1020.03
2017-03-13T03:07:02.436Z,1019.99
2017-03-13T03:08:02.372Z,1020.03
2017-03-13T03:09:02.311Z,1020.01
2017-03-13T03:10:02.249Z,1020.01
2017-03-13T03:11:02.188Z,1019.99
2017-03-13T03:12:02.125Z,1019.95
2017-03-13T03:13:02.062Z,1019.94
2017-03-13T03:14:02.001Z,1019.91
2017-03-13T03:15:01.939Z,1019.88
2017-03-13T03:16:01.877Z,1019.86
2017-03-13T03:17:01.814Z,1019.86
2017-03-13T03:18:01.753Z,1019.9
2017-03-13T03:19:01.690Z,1019.92
2017-03-13T03:20:01.628Z,1019.95
2017-03-13T03:21:01.567Z,1019.93
2017-03-13T03:22:01.505Z,1019.97
2017-03-13T03:23:01.442Z,1019.93
2017-03-13T03:24:01.385Z,1019.94
2017-03-13T03:25:01.318Z,1019.89
2017-03-13T03:26:01.257Z,1019.92
2017-03-13T03:27:01.195Z,1019.9
2017-03-13T03:28:01.132Z,1019.96
2017-03-13T03:29:01.070Z,1019.92
2017-03-13T03:30:01.008Z,1019.95
2017-03-13T03:31:00.946Z,1019.94
2017-03-13T03:32:00.884Z,1019.97
2017-03-13T03:33:00.822Z,1019.99
2017-03-13T03:34:00.759Z,1019.97
2017-03-13T03:35:00.696Z,1020
2017-03-13T03:36:00.635Z,1020
2017-03-13T03:37:00.574Z,1019.98
2017-03-13T03:38:00.511Z,1019.95
2017-03-13T03:39:00.452Z,1019.96
2017-03-13T03:40:00.390Z,1019.99
2017-03-13T03:41:00.323Z,1020
2017-03-13T03:42:00.267Z,1019.93
2017-03-13T03:43:00.200Z,1019.91
2017-03-13T03:44:00.139Z,1019.93
2017-03-13T03:45:00.076Z,1019.93
2017-03-13T03:46:00.014Z,1019.93
2017-03-13T03:46:59.952Z,1019.9
2017-03-13T03:47:59.890Z,1019.92
2017-03-13T03:48:59.829Z,1019.88
2017-03-13T03:49:59.766Z,1019.92
2017-03-13T03:50:59.705Z,1019.91
2017-03-13T03:51:59.643Z,1019.91
2017-03-13T03:52:59.580Z,1019.99
2017-03-13T03:53:59.519Z,1019.97
2017-03-13T03:54:59.457Z,1019.97
2017-03-13T03:55:59.394Z,1019.97
2017-03-13T03:56:59.332Z,1019.97
2017-03-13T03:57:59.271Z,1020
2017-03-13T03:58:59.208Z,1020.03
2017-03-13T03:59:59.144Z,1020.03
2017-03-13T04:00:59.083Z,1020.05
2017-03-13T04:01:59.022Z,1020.32
2017-03-13T04:02:58.959Z,1020.59
2017-03-13T04:03:58.900Z,1020.6
2017-03-13T04:04:58.846Z,1020.36
2017-03-13T04:05:58.773Z,1020.33
2017-03-13T04:06:58.711Z,1020.37
2017-03-13T04:07:58.657Z,1020.37
2017-03-13T04:08:58.597Z,1020.33
2017-03-13T04:09:58.524Z,1020.33
2017-03-13T04:10:58.464Z,1020.37
2017-03-13T04:11:58.401Z,1020.36
2017-03-13T04:12:58.340Z,1020.33
2017-03-13T04:13:58.284Z,1020.34
2017-03-13T04:14:58.215Z,1020.36
2017-03-13T04:15:58.153Z,1020.35
2017-03-13T04:16:58.092Z,1020.37
2017-03-13T04:17:58.038Z,1020.36
2017-03-13T04:18:57.968Z,1020.37
2017-03-13T04:19:57.906Z,1020.39
2017-03-13T04:20:57.841Z,1020.38
2017-03-13T04:21:57.781Z,1020.36
2017-03-13T04:22:57.718Z,1020.36
2017-03-13T04:23:57.668Z,1020.38
2017-03-13T04:24:57.594Z,1020.39
2017-03-13T04:25:57.540Z,1020.39
2017-03-13T04:26:57.471Z,1020.37
2017-03-13T04:27:57.410Z,1020.41
2017-03-13T04:28:57.345Z,1020.41
2017-03-13T04:29:57.284Z,1020.4
2017-03-13T04:30:57.222Z,1020.42
2017-03-13T04:31:57.162Z,1020.43
2017-03-13T04:32:57.097Z,1020.45
2017-03-13T04:33:57.036Z,1020.45
2017-03-13T04:34:56.974Z,1020.45
2017-03-13T04:35:56.912Z,1020.48
2017-03-13T04:36:56.849Z,1020.5
2017-03-13T04:37:56.787Z,1020.53
2017-03-13T04:38:56.726Z,1020.5
2017-03-13T04:39:56.663Z,1020.57
2017-03-13T04:40:56.601Z,1020.59
2017-03-13T04:41:56.537Z,1020.62
2017-03-13T04:42:56.476Z,1020.62
2017-03-13T04:43:56.414Z,1020.65
2017-03-13T04:44:56.352Z,1020.64
2017-03-13T04:45:56.291Z,1020.67
2017-03-13T04:46:56.228Z,1020.68
2017-03-13T04:47:56.166Z,1020.67
2017-03-13T04:48:56.104Z,1020.65
2017-03-13T04:49:56.042Z,1020.64
2017-03-13T04:50:55.979Z,1020.67
2017-03-13T04:51:55.916Z,1020.67
2017-03-13T04:52:55.855Z,1020.63
2017-03-13T04:53:55.792Z,1020.62
2017-03-13T04:54:55.738Z,1020.61
2017-03-13T04:55:55.667Z,1020.65
2017-03-13T04:56:55.605Z,1020.6
2017-03-13T04:57:55.543Z,1020.58
2017-03-13T04:58:55.483Z,1020.59
2017-03-13T04:59:55.421Z,1020.58
2017-03-13T05:00:55.359Z,1020.62
2017-03-13T05:01:55.296Z,1020.68
2017-03-13T05:02:55.234Z,1020.65
2017-03-13T05:03:55.172Z,1020.66
2017-03-13T05:04:55.110Z,1020.67
2017-03-13T05:05:55.046Z,1020.69
2017-03-13T05:06:54.984Z,1020.67
2017-03-13T05:07:54.924Z,1020.68
2017-03-13T05:08:54.860Z,1020.72
2017-03-13T05:09:54.801Z,1020.74
2017-03-13T05:10:54.737Z,1020.74
2017-03-13T05:11:54.676Z,1020.77
2017-03-13T05:12:54.612Z,1020.78
2017-03-13T05:13:54.550Z,1020.79
2017-03-13T05:14:54.487Z,1020.82
2017-03-13T05:15:54.433Z,1020.85
2017-03-13T05:16:54.393Z,1020.85
2017-03-13T05:17:54.302Z,1020.84
2017-03-13T05:18:54.241Z,1020.87
2017-03-13T05:19:54.175Z,1020.87
2017-03-13T05:20:54.114Z,1020.89
2017-03-13T05:21:54.053Z,1020.86
2017-03-13T05:22:53.991Z,1020.85
2017-03-13T05:23:53.929Z,1020.83
2017-03-13T05:24:53.866Z,1020.84
2017-03-13T05:25:53.804Z,1020.88
2017-03-13T05:26:53.741Z,1020.9
2017-03-13T05:27:53.680Z,1020.91
2017-03-13T05:28:53.618Z,1020.91
2017-03-13T05:29:53.556Z,1020.92
2017-03-13T05:30:53.493Z,1020.87
2017-03-13T05:31:53.431Z,1020.87
2017-03-13T05:32:53.370Z,1020.83
2017-03-13T05:33:53.307Z,1020.85
2017-03-13T05:34:53.244Z,1020.83
2017-03-13T05:35:53.183Z,1020.84
2017-03-13T05:36:53.121Z,1020.85
2017-03-13T05:37:53.058Z,1020.86
2017-03-13T05:38:52.996Z,1020.89
2017-03-13T05:39:52.933Z,1020.84
2017-03-13T05:40:52.870Z,1020.87
2017-03-13T05:41:52.807Z,1020.87
2017-03-13T05:42:52.747Z,1020.91
2017-03-13T05:43:52.685Z,1020.96
2017-03-13T05:44:52.623Z,1020.91
2017-03-13T05:45:52.560Z,1020.89
2017-03-13T05:46:52.507Z,1020.9
2017-03-13T05:47:52.437Z,1020.92
2017-03-13T05:48:52.374Z,1020.94
2017-03-13T05:49:52.311Z,1020.91
2017-03-13T05:50:52.250Z,1020.94
2017-03-13T05:51:52.188Z,1020.97
2017-03-13T05:52:52.125Z,1020.96
2017-03-13T05:53:52.064Z,1021.03
2017-03-13T05:54:52.002Z,1020.87
2017-03-13T05:55:51.938Z,1020.78
2017-03-13T05:56:51.877Z,1020.81
2017-03-13T05:57:51.815Z,1020.78
2017-03-13T05:58:51.753Z,1020.82
2017-03-13T05:59:51.690Z,1020.8
2017-03-13T06:00:51.778Z,1020.81
2017-03-13T06:01:51.567Z,1020.85
2017-03-13T06:02:51.504Z,1020.79
2017-03-13T06:03:51.441Z,1020.81
2017-03-13T06:04:51.379Z,1020.84
2017-03-13T06:05:51.317Z,1020.84
2017-03-13T06:06:51.254Z,1020.86
2017-03-13T06:07:51.191Z,1020.91
2017-03-13T06:08:51.129Z,1020.91
2017-03-13T06:09:51.068Z,1020.93
2017-03-13T06:10:51.005Z,1020.9
2017-03-13T06:11:50.942Z,1020.94
2017-03-13T06:12:50.881Z,1020.95
2017-03-13T06:13:50.819Z,1020.95
2017-03-13T06:14:50.757Z,1020.94
2017-03-13T06:15:50.694Z,1020.96
2017-03-13T06:16:50.632Z,1020.96
2017-03-13T06:17:50.569Z,1020.98
2017-03-13T06:18:50.507Z,1020.97
2017-03-13T06:19:50.450Z,1020.96
2017-03-13T06:20:50.384Z,1020.94
2017-03-13T06:21:50.322Z,1020.95
2017-03-13T06:22:50.259Z,1020.92
2017-03-13T06:23:50.198Z,1020.97
2017-03-13T06:24:50.134Z,1020.93
2017-03-13T06:25:50.071Z,1020.99
2017-03-13T06:26:50.009Z,1021.02
2017-03-13T06:27:49.947Z,1021.08
2017-03-13T06:28:49.885Z,1021.07
2017-03-13T06:29:49.823Z,1021.07
2017-03-13T06:30:49.765Z,1021.09
2017-03-13T06:31:49.700Z,1021.12
2017-03-13T06:32:49.638Z,1021.12
2017-03-13T06:33:49.575Z,1021.17
2017-03-13T06:34:49.512Z,1021.15
2017-03-13T06:35:49.459Z,1021.21
2017-03-13T06:36:49.389Z,1021.24
2017-03-13T06:37:49.326Z,1021.26
2017-03-13T06:38:49.263Z,1021.26
2017-03-13T06:39:49.203Z,1021.28
2017-03-13T06:40:49.140Z,1021.29
2017-03-13T06:41:49.076Z,1021.27
2017-03-13T06:42:49.015Z,1021.3
2017-03-13T06:43:48.952Z,1021.3
2017-03-13T06:44:48.889Z,1021.31
2017-03-13T06:45:48.838Z,1021.34
2017-03-13T06:46:48.769Z,1021.32
2017-03-13T06:47:48.713Z,1021.33
2017-03-13T06:48:48.640Z,1021.29
2017-03-13T06:49:48.589Z,1021.34
2017-03-13T06:50:48.517Z,1021.36
2017-03-13T06:51:48.455Z,1021.36
2017-03-13T06:52:48.393Z,1021.36
2017-03-13T06:53:48.330Z,1021.33
2017-03-13T06:54:48.268Z,1021.38
2017-03-13T06:55:48.206Z,1021.39
2017-03-13T06:56:48.143Z,1021.41
2017-03-13T06:57:48.084Z,1021.33
2017-03-13T06:58:48.017Z,1021.36
2017-03-13T06:59:47.957Z,1021.4
2017-03-13T07:00:47.895Z,1021.39
2017-03-13T07:01:47.831Z,1021.38
2017-03-13T07:02:47.770Z,1021.38
2017-03-13T07:03:47.708Z,1021.36
2017-03-13T07:04:47.646Z,1021.38
2017-03-13T07:05:47.582Z,1021.33
2017-03-13T07:06:47.521Z,1021.38
2017-03-13T07:07:47.459Z,1021.31
2017-03-13T07:08:47.398Z,1021.32
2017-03-13T07:09:47.334Z,1021.31
2017-03-13T07:10:47.272Z,1021.33
2017-03-13T07:11:47.210Z,1021.33
2017-03-13T07:12:47.147Z,1021.34
2017-03-13T07:13:47.085Z,1021.37
2017-03-13T07:14:47.022Z,1021.39
2017-03-13T07:15:46.962Z,1021.39
2017-03-13T07:16:46.902Z,1021.42
2017-03-13T07:17:46.838Z,1021.44
2017-03-13T07:18:46.774Z,1021.44
2017-03-13T07:19:46.713Z,1021.48
2017-03-13T07:20:46.651Z,1021.48
2017-03-13T07:21:46.588Z,1021.46
2017-03-13T07:22:46.527Z,1021.44
2017-03-13T07:23:46.463Z,1021.45
2017-03-13T07:24:46.402Z,1021.47
2017-03-13T07:25:46.338Z,1021.46
2017-03-13T07:26:46.278Z,1021.47
2017-03-13T07:27:46.215Z,1021.48
2017-03-13T07:28:46.150Z,1021.49
2017-03-13T07:29:46.089Z,1021.46
2017-03-13T07:30:46.026Z,1021.45
2017-03-13T07:31:45.966Z,1021.49
2017-03-13T07:32:45.904Z,1021.48
2017-03-13T07:33:45.842Z,1021.49
2017-03-13T07:34:45.777Z,1021.49
2017-03-13T07:35:45.717Z,1021.48
2017-03-13T07:36:45.655Z,1021.49
2017-03-13T07:37:45.593Z,1021.49
2017-03-13T07:38:45.530Z,1021.46
2017-03-13T07:39:45.468Z,1021.47
2017-03-13T07:40:45.405Z,1021.43
2017-03-13T07:41:45.343Z,1021.47
2017-03-13T07:42:45.282Z,1021.47
2017-03-13T07:43:45.219Z,1021.48
2017-03-13T07:44:45.156Z,1021.47
2017-03-13T07:45:45.095Z,1021.46
2017-03-13T07:46:45.033Z,1021.46
2017-03-13T07:47:44.970Z,1021.45
2017-03-13T07:48:44.908Z,1021.45
2017-03-13T07:49:44.844Z,1021.47
2017-03-13T07:50:45.035Z,1021.48
2017-03-13T07:51:44.721Z,1021.46
2017-03-13T07:52:44.658Z,1021.45
2017-03-13T07:53:44.596Z,1021.46
2017-03-13T07:54:44.533Z,1021.41
2017-03-13T07:55:44.571Z,1021.49
2017-03-13T07:56:44.408Z,1021.47
2017-03-13T07:57:44.346Z,1021.49
2017-03-13T07:58:44.285Z,1021.52
2017-03-13T07:59:44.223Z,1021.51
2017-03-13T08:00:44.160Z,1021.54
2017-03-13T08:01:44.100Z,1021.54
2017-03-13T08:02:44.037Z,1021.53
2017-03-13T08:03:43.973Z,1021.55
2017-03-13T08:04:43.910Z,1021.56
2017-03-13T08:05:43.848Z,1021.56
2017-03-13T08:06:43.787Z,1021.57
2017-03-13T08:07:43.724Z,1021.6
2017-03-13T08:08:43.662Z,1021.57
2017-03-13T08:09:43.601Z,1021.55
2017-03-13T08:10:43.542Z,1021.57
2017-03-13T08:11:43.484Z,1021.56
2017-03-13T08:12:43.413Z,1021.57
2017-03-13T08:13:43.352Z,1021.54
2017-03-13T08:14:43.289Z,1021.53
2017-03-13T08:15:43.226Z,1021.56
2017-03-13T08:16:43.165Z,1021.56
2017-03-13T08:17:43.103Z,1021.59
2017-03-13T08:18:43.040Z,1021.58
2017-03-13T08:19:42.978Z,1021.62
2017-03-13T08:20:42.915Z,1021.59
2017-03-13T08:21:42.855Z,1021.6
2017-03-13T08:22:42.791Z,1021.61
2017-03-13T08:23:42.729Z,1021.58
2017-03-13T08:24:42.671Z,1021.6
2017-03-13T08:25:42.604Z,1021.59
2017-03-13T08:26:42.544Z,1021.59
2017-03-13T08:27:42.480Z,1021.61
2017-03-13T08:28:42.419Z,1021.58
2017-03-13T08:29:42.355Z,1021.62
2017-03-13T08:30:42.293Z,1021.57
2017-03-13T08:31:42.230Z,1021.59
2017-03-13T08:32:42.419Z,1021.59
2017-03-13T08:33:42.107Z,1021.59
2017-03-13T08:34:42.173Z,1021.56
2017-03-13T08:35:41.983Z,1021.6
2017-03-13T08:36:41.920Z,1021.61
2017-03-13T08:37:41.858Z,1021.61
2017-03-13T08:38:41.795Z,1021.62
2017-03-13T08:39:41.734Z,1021.61
2017-03-13T08:40:41.671Z,1021.66
2017-03-13T08:41:41.713Z,1021.64
2017-03-13T08:42:41.802Z,1021.69
2017-03-13T08:43:41.487Z,1021.69
2017-03-13T08:44:41.423Z,1021.65
2017-03-13T08:45:41.361Z,1021.65
2017-03-13T08:46:41.299Z,1021.62
2017-03-13T08:47:41.235Z,1021.63
2017-03-13T08:48:41.174Z,1021.63
2017-03-13T08:49:41.113Z,1021.61
2017-03-13T08:50:41.050Z,1021.6
2017-03-13T08:51:40.987Z,1021.57
2017-03-13T08:52:40.925Z,1021.63
2017-03-13T08:53:40.863Z,1021.54
2017-03-13T08:54:40.801Z,1021.56
2017-03-13T08:55:40.740Z,1021.6
2017-03-13T08:56:40.678Z,1021.62
2017-03-13T08:57:40.615Z,1021.64
2017-03-13T08:58:40.554Z,1021.69
2017-03-13T08:59:40.491Z,1021.61
2017-03-13T09:00:40.430Z,1021.6
2017-03-13T09:01:40.368Z,1021.61
2017-03-13T09:02:40.304Z,1021.67
2017-03-13T09:03:40.243Z,1021.66
2017-03-13T09:04:40.181Z,1021.65
2017-03-13T09:05:40.220Z,1021.7
2017-03-13T09:06:40.058Z,1021.72
2017-03-13T09:07:40.000Z,1021.72
2017-03-13T09:08:39.954Z,1021.75
2017-03-13T09:09:39.870Z,1021.72
2017-03-13T09:10:39.958Z,1021.72
2017-03-13T09:11:39.748Z,1021.75
2017-03-13T09:12:39.786Z,1021.73
2017-03-13T09:13:39.624Z,1021.73
2017-03-13T09:14:39.562Z,1021.75
2017-03-13T09:15:39.801Z,1021.77
2017-03-13T09:16:39.440Z,1021.75
2017-03-13T09:17:39.625Z,1021.72
2017-03-13T09:18:39.315Z,1021.74
2017-03-13T09:19:39.253Z,1021.71
2017-03-13T09:20:39.189Z,1021.73
2017-03-13T09:21:39.128Z,1021.7
2017-03-13T09:22:39.067Z,1021.72
2017-03-13T09:23:39.005Z,1021.71
2017-03-13T09:24:38.942Z,1021.74
2017-03-13T09:25:38.880Z,1021.71
2017-03-13T09:26:38.823Z,1021.69
2017-03-13T09:27:38.757Z,1021.7
2017-03-13T09:28:38.694Z,1021.67
2017-03-13T09:29:38.630Z,1021.68
2017-03-13T09:30:38.818Z,1021.68
2017-03-13T09:31:38.508Z,1021.65
2017-03-13T09:32:38.449Z,1021.64
2017-03-13T09:33:38.387Z,1021.7
2017-03-13T09:34:38.323Z,1021.7
2017-03-13T09:35:38.261Z,1021.71
2017-03-13T09:36:38.199Z,1021.75
2017-03-13T09:37:38.137Z,1021.73
2017-03-13T09:38:38.074Z,1021.73
2017-03-13T09:39:38.013Z,1021.79
2017-03-13T09:40:37.949Z,1021.78
2017-03-13T09:41:37.889Z,1021.79
2017-03-13T09:42:37.826Z,1021.83
2017-03-13T09:43:37.764Z,1021.84
2017-03-13T09:44:37.702Z,1021.83
2017-03-13T09:45:37.890Z,1021.84
2017-03-13T09:46:37.579Z,1021.86
2017-03-13T09:47:37.517Z,1021.84
2017-03-13T09:48:37.455Z,1021.83
2017-03-13T09:49:37.394Z,1021.81
2017-03-13T09:50:37.582Z,1021.83
2017-03-13T09:51:37.317Z,1021.79
2017-03-13T09:52:37.209Z,1021.83
2017-03-13T09:53:37.145Z,1021.79
2017-03-13T09:54:37.084Z,1021.75
2017-03-13T09:55:37.371Z,1021.79
2017-03-13T09:56:36.962Z,1021.73
2017-03-13T09:57:36.898Z,1021.77
2017-03-13T09:58:36.835Z,1021.75
2017-03-13T09:59:36.774Z,1021.74
2017-03-13T10:00:36.714Z,1021.71
2017-03-13T10:01:36.655Z,1021.73
2017-03-13T10:02:36.590Z,1021.68
2017-03-13T10:03:36.584Z,1021.69
2017-03-13T10:04:36.464Z,1021.68
2017-03-13T10:05:36.653Z,1021.67
2017-03-13T10:06:36.692Z,1021.67
2017-03-13T10:07:36.350Z,1021.67
2017-03-13T10:08:36.218Z,1021.65
2017-03-13T10:09:36.157Z,1021.64
2017-03-13T10:10:36.108Z,1021.66
2017-03-13T10:11:36.033Z,1021.64
2017-03-13T10:12:35.973Z,1021.63
2017-03-13T10:13:35.910Z,1021.63
2017-03-13T10:14:35.847Z,1021.62
2017-03-13T10:15:35.786Z,1021.62
2017-03-13T10:16:35.725Z,1021.63
2017-03-13T10:17:35.664Z,1021.6
2017-03-13T10:18:35.603Z,1021.62
2017-03-13T10:19:35.539Z,1021.63
2017-03-13T10:20:35.478Z,1021.64
2017-03-13T10:21:35.418Z,1021.57
2017-03-13T10:22:35.354Z,1021.58
2017-03-13T10:23:35.293Z,1021.62
2017-03-13T10:24:35.231Z,1021.6
2017-03-13T10:25:35.171Z,1021.55
2017-03-13T10:26:35.109Z,1021.55
2017-03-13T10:27:35.046Z,1021.58
2017-03-13T10:28:34.985Z,1021.6
2017-03-13T10:29:34.925Z,1021.55
2017-03-13T10:30:34.863Z,1021.57
2017-03-13T10:31:34.802Z,1021.59
2017-03-13T10:32:34.741Z,1021.59
2017-03-13T10:33:35.043Z,1021.6
2017-03-13T10:34:34.619Z,1021.62
2017-03-13T10:35:34.563Z,1021.66
2017-03-13T10:36:34.508Z,1021.66
2017-03-13T10:37:34.433Z,1021.63
2017-03-13T10:38:34.371Z,1021.67
2017-03-13T10:39:34.460Z,1021.64
2017-03-13T10:40:34.249Z,1021.64
2017-03-13T10:41:34.185Z,1021.64
2017-03-13T10:42:34.127Z,1021.65
2017-03-13T10:43:34.065Z,1021.6
2017-03-13T10:44:34.015Z,1021.54
2017-03-13T10:45:33.942Z,1021.57
2017-03-13T10:46:33.880Z,1021.58
2017-03-13T10:47:33.820Z,1021.61
2017-03-13T10:48:33.759Z,1021.56
2017-03-13T10:49:33.707Z,1021.56
2017-03-13T10:50:33.634Z,1021.59
2017-03-13T10:51:33.572Z,1021.53
2017-03-13T10:52:33.532Z,1021.6
2017-03-13T10:53:33.451Z,1021.6
2017-03-13T10:54:33.390Z,1021.6
2017-03-13T10:55:33.338Z,1021.66
2017-03-13T10:56:33.267Z,1021.64
2017-03-13T10:57:33.206Z,1021.69
2017-03-13T10:58:33.145Z,1021.71
2017-03-13T10:59:33.083Z,1021.66
2017-03-13T11:00:33.373Z,1021.71
2017-03-13T11:01:32.960Z,1021.62
2017-03-13T11:02:32.899Z,1021.63
2017-03-13T11:03:32.838Z,1021.61
2017-03-13T11:04:32.777Z,1021.62
2017-03-13T11:05:32.715Z,1021.63
2017-03-13T11:06:32.652Z,1021.61
2017-03-13T11:07:32.592Z,1021.68
2017-03-13T11:08:32.528Z,1021.66
2017-03-13T11:09:32.478Z,1021.64
2017-03-13T11:10:32.408Z,1021.61
2017-03-13T11:11:32.357Z,1021.65
2017-03-13T11:12:32.285Z,1021.63
2017-03-13T11:13:32.282Z,1021.62
2017-03-13T11:14:32.162Z,1021.64
2017-03-13T11:15:32.100Z,1021.58
2017-03-13T11:16:32.040Z,1021.6
2017-03-13T11:17:31.977Z,1021.57
2017-03-13T11:18:31.918Z,1021.58
2017-03-13T11:19:31.855Z,1021.6
2017-03-13T11:20:31.795Z,1021.58
2017-03-13T11:21:31.733Z,1021.58
2017-03-13T11:22:31.672Z,1021.55
2017-03-13T11:23:31.620Z,1021.5
2017-03-13T11:24:31.548Z,1021.5
2017-03-13T11:25:31.487Z,1021.48
2017-03-13T11:26:31.425Z,1021.48
2017-03-13T11:27:31.364Z,1021.43
2017-03-13T11:28:31.302Z,1021.39
2017-03-13T11:29:31.241Z,1021.43
2017-03-13T11:30:31.188Z,1021.41
2017-03-13T11:31:31.118Z,1021.41
2017-03-13T11:32:31.056Z,1021.38
2017-03-13T11:33:30.995Z,1021.34
2017-03-13T11:34:30.934Z,1021.36
2017-03-13T11:35:30.872Z,1021.37
2017-03-13T11:36:30.811Z,1021.28
2017-03-13T11:37:30.759Z,1021.33
2017-03-13T11:38:30.688Z,1021.3
2017-03-13T11:39:30.626Z,1021.25
2017-03-13T11:40:30.565Z,1021.22
2017-03-13T11:41:30.503Z,1021.27
2017-03-13T11:42:30.473Z,1021.24
2017-03-13T11:43:30.382Z,1021.28
2017-03-13T11:44:30.329Z,1021.3
2017-03-13T11:45:30.261Z,1021.28
2017-03-13T11:46:30.195Z,1021.25
2017-03-13T11:47:30.135Z,1021.21
2017-03-13T11:48:30.073Z,1021.2
2017-03-13T11:49:30.283Z,1021.17
2017-03-13T11:50:29.949Z,1021.21
2017-03-13T11:51:29.899Z,1021.17
2017-03-13T11:52:29.826Z,1021.27
2017-03-13T11:53:29.765Z,1021.21
2017-03-13T11:54:29.704Z,1021.21
2017-03-13T11:55:29.642Z,1021.21
2017-03-13T11:56:29.579Z,1021.18
2017-03-13T11:57:29.520Z,1021.2
2017-03-13T11:58:29.458Z,1021.18
2017-03-13T11:59:29.494Z,1021.17
2017-03-13T12:00:29.584Z,1021.15
2017-03-13T12:01:29.273Z,1021.18
2017-03-13T12:02:29.212Z,1021.18
2017-03-13T12:03:29.151Z,1021.12
2017-03-13T12:04:29.089Z,1021.1
2017-03-13T12:05:29.027Z,1021.06
2017-03-13T12:06:28.967Z,1021.08
2017-03-13T12:07:28.906Z,1021.02
2017-03-13T12:08:28.845Z,1021.01